Pisco, Pisco Airport (SPSO)

NamePisco Airport
CityPisco
CountryPeru
ICAOSPSO
IATAPIO
Altitude12 m
CoordinatesGoogle Map
Live Air TrafficLiveATC.net
METARSPSO 210200Z 19007KT CAVOK 17/14 Q1016 RMK PP000
2019-10-21 02:00:00 Wind: South (190°) 3.6 m/s - Visibility: > 10000 m - Weather: CAVOK - Temperature: 17 °C - Dew point: 14 °C - Humidity: 82.6% - Pressure: 1016 hPa
Statistics

The table below shows the detailed information of all flights to/from Pisco, Pisco Airport (SPSO).